createdAt,value
2023-02-21T00:00:17.429Z,35.95
2023-02-21T00:02:51.215Z,37.38
2023-02-21T00:05:18.165Z,38.25
2023-02-21T00:07:51.189Z,38.38
2023-02-21T00:10:18.300Z,38.80
2023-02-21T00:12:45.196Z,38.95
2023-02-21T00:15:18.225Z,38.92
2023-02-21T00:17:45.818Z,38.95
2023-02-21T00:20:12.735Z,39.88
2023-02-21T00:22:46.169Z,41.30
2023-02-21T00:25:13.093Z,42.83
2023-02-21T00:27:46.243Z,41.83
2023-02-21T00:30:21.176Z,41.17
2023-02-21T00:32:54.271Z,41.00
2023-02-21T00:35:21.494Z,40.25
2023-02-21T00:37:52.143Z,42.58
2023-02-21T00:40:25.218Z,42.25
2023-02-21T00:42:52.076Z,38.83
2023-02-21T00:45:18.952Z,40.78
2023-02-21T00:47:52.211Z,38.50
2023-02-21T00:50:19.086Z,38.33
2023-02-21T00:52:45.972Z,37.75
2023-02-21T00:55:20.249Z,42.47
2023-02-21T00:57:47.394Z,38.08
2023-02-21T01:00:27.240Z,39.20
2023-02-21T01:03:00.187Z,38.20
2023-02-21T01:05:27.050Z,38.38
2023-02-21T01:08:00.245Z,39.75
2023-02-21T01:10:27.144Z,39.90
2023-02-21T01:12:54.418Z,39.25
2023-02-21T01:15:28.279Z,38.28
2023-02-21T01:17:55.246Z,38.97
2023-02-21T01:20:22.125Z,37.83
2023-02-21T01:22:55.250Z,39.15
2023-02-21T01:25:22.149Z,38.38
2023-02-21T01:27:55.208Z,36.78
2023-02-21T01:30:28.300Z,38.28
2023-02-21T01:32:55.196Z,38.70
2023-02-21T01:35:22.094Z,37.00
2023-02-21T01:37:55.219Z,36.38
2023-02-21T01:40:22.157Z,38.30
2023-02-21T01:42:49.025Z,38.85
2023-02-21T01:45:28.275Z,37.78
2023-02-21T01:47:55.191Z,37.13
2023-02-21T01:50:33.294Z,37.72
2023-02-21T01:53:01.721Z,37.45
2023-02-21T01:55:28.608Z,35.95
2023-02-21T01:58:04.361Z,36.45
2023-02-21T02:00:31.580Z,37.92
2023-02-21T02:03:06.259Z,37.83
2023-02-21T02:05:33.205Z,36.90
2023-02-21T02:08:06.275Z,36.30
2023-02-21T02:10:33.185Z,39.03
2023-02-21T02:13:46.281Z,37.42
2023-02-21T02:16:26.197Z,37.50
2023-02-21T02:19:24.318Z,36.20
2023-02-21T02:22:18.539Z,37.13
2023-02-21T02:25:14.287Z,35.72
2023-02-21T02:28:08.801Z,36.35
2023-02-21T02:31:30.347Z,36.70
2023-02-21T02:34:47.288Z,38.00
2023-02-21T02:37:41.383Z,38.47
2023-02-21T02:40:42.283Z,38.90
2023-02-21T02:43:39.335Z,39.30
2023-02-21T02:46:16.281Z,38.17
2023-02-21T02:49:08.790Z,37.78
2023-02-21T02:51:42.236Z,39.95
2023-02-21T02:54:15.304Z,38.75
2023-02-21T02:56:42.349Z,38.30
2023-02-21T02:59:17.263Z,37.80
2023-02-21T03:01:50.357Z,39.33
2023-02-21T03:04:48.648Z,39.70
2023-02-21T03:07:38.368Z,37.05
2023-02-21T03:10:30.290Z,36.20
2023-02-21T03:13:46.289Z,37.13
2023-02-21T03:16:20.626Z,36.42
2023-02-21T03:19:24.306Z,36.33
2023-02-21T03:22:13.406Z,37.80
2023-02-21T03:24:48.295Z,36.47
2023-02-21T03:27:21.302Z,36.42
2023-02-21T03:29:56.408Z,37.33
2023-02-21T03:32:47.579Z,36.65
2023-02-21T03:35:21.324Z,36.92
2023-02-21T03:37:57.326Z,36.78
2023-02-21T03:40:27.961Z,36.80
2023-02-21T03:42:56.283Z,37.95
2023-02-21T03:45:30.311Z,37.33
2023-02-21T03:48:03.319Z,38.88
2023-02-21T03:50:30.782Z,37.17
2023-02-21T03:52:57.708Z,38.95
2023-02-21T03:55:32.757Z,39.30
2023-02-21T03:57:59.676Z,38.13
2023-02-21T04:00:33.326Z,37.95
2023-02-21T04:03:06.325Z,37.83
2023-02-21T04:05:33.612Z,38.42
2023-02-21T04:08:00.872Z,41.00
2023-02-21T04:10:40.675Z,40.78
2023-02-21T04:13:13.969Z,40.13
2023-02-21T04:15:47.419Z,40.33
2023-02-21T04:18:21.305Z,42.42
2023-02-21T04:20:48.413Z,40.45
2023-02-21T04:23:29.531Z,42.88
2023-02-21T04:25:56.480Z,39.33
2023-02-21T04:28:30.373Z,39.17
2023-02-21T04:30:57.334Z,38.53
2023-02-21T04:33:24.245Z,35.55
2023-02-21T04:35:58.394Z,36.60
2023-02-21T04:38:32.438Z,33.33
2023-02-21T04:40:59.457Z,32.35
2023-02-21T04:43:33.380Z,32.05
2023-02-21T04:46:07.373Z,30.48
2023-02-21T04:48:34.281Z,30.83
2023-02-21T04:51:15.047Z,31.33
2023-02-21T04:53:42.970Z,31.92
2023-02-21T04:56:16.350Z,31.67
2023-02-21T04:58:49.366Z,32.55
2023-02-21T05:01:17.817Z,34.03
2023-02-21T05:03:51.371Z,34.65
2023-02-21T05:06:29.365Z,32.78
2023-02-21T05:08:56.574Z,32.95
2023-02-21T05:11:41.413Z,33.50
2023-02-21T05:14:08.501Z,33.63
2023-02-21T05:16:35.416Z,32.40
2023-02-21T05:19:08.348Z,34.08
2023-02-21T05:21:35.953Z,33.95
2023-02-21T05:24:02.905Z,35.17
2023-02-21T05:26:41.415Z,32.78
2023-02-21T05:29:08.294Z,34.88
2023-02-21T05:31:35.246Z,36.33
2023-02-21T05:34:08.412Z,36.10
2023-02-21T05:36:35.772Z,36.70
2023-02-21T05:39:02.740Z,37.33
2023-02-21T05:41:36.411Z,39.08
2023-02-21T05:44:10.398Z,36.35
2023-02-21T05:46:37.282Z,38.47
2023-02-21T05:49:11.616Z,37.30
2023-02-21T05:51:41.685Z,38.38
2023-02-21T05:54:16.616Z,36.10
2023-02-21T05:56:51.705Z,36.47
2023-02-21T05:59:26.639Z,35.83
2023-02-21T06:01:53.604Z,37.13
2023-02-21T06:04:27.413Z,36.95
2023-02-21T06:06:54.890Z,36.60
2023-02-21T06:09:28.350Z,34.55
2023-02-21T06:12:03.394Z,35.22
2023-02-21T06:14:30.260Z,36.60
2023-02-21T06:16:57.188Z,35.88
2023-02-21T06:19:31.940Z,35.85
2023-02-21T06:22:06.334Z,36.75
2023-02-21T06:24:33.291Z,35.95
2023-02-21T06:27:06.369Z,37.58
2023-02-21T06:29:33.301Z,37.33
2023-02-21T06:32:07.437Z,36.65
2023-02-21T06:34:35.507Z,37.83
2023-02-21T06:37:02.551Z,36.58
2023-02-21T06:39:36.365Z,36.10
2023-02-21T06:42:03.415Z,39.38
2023-02-21T06:44:37.532Z,40.35
2023-02-21T06:47:11.439Z,39.75
2023-02-21T06:49:44.576Z,38.17
2023-02-21T06:52:11.507Z,38.85
2023-02-21T06:54:38.563Z,37.97
2023-02-21T06:57:12.449Z,38.15
2023-02-21T06:59:39.338Z,37.45
2023-02-21T07:02:06.215Z,36.72
2023-02-21T07:04:39.474Z,37.42
2023-02-21T07:07:06.357Z,37.13
2023-02-21T07:09:39.400Z,37.95
2023-02-21T07:12:06.399Z,37.78
2023-02-21T07:14:33.563Z,37.38
2023-02-21T07:17:07.381Z,40.70
2023-02-21T07:19:34.242Z,38.78
2023-02-21T07:22:07.449Z,40.00
2023-02-21T07:24:36.621Z,39.70
2023-02-21T07:27:10.412Z,38.33
2023-02-21T07:29:43.415Z,39.45
2023-02-21T07:32:10.366Z,36.45
2023-02-21T07:34:43.409Z,36.70
2023-02-21T07:37:10.636Z,37.20
2023-02-21T07:39:37.559Z,35.63
2023-02-21T07:42:13.361Z,36.30
2023-02-21T07:44:40.338Z,32.95
2023-02-21T07:47:13.431Z,31.60
2023-02-21T07:49:40.984Z,31.85
2023-02-21T07:52:14.476Z,29.75
2023-02-21T07:54:41.343Z,32.40
2023-02-21T07:57:08.260Z,30.98
2023-02-21T07:59:41.419Z,33.00
2023-02-21T08:02:09.883Z,32.83
2023-02-21T08:04:43.488Z,33.10
2023-02-21T08:07:10.532Z,31.85
2023-02-21T08:09:44.458Z,31.48
2023-02-21T08:12:17.460Z,31.58
2023-02-21T08:14:50.459Z,31.25
2023-02-21T08:17:24.095Z,29.38
2023-02-21T08:19:57.452Z,30.58
2023-02-21T08:22:24.336Z,30.85
2023-02-21T08:24:51.337Z,28.83
2023-02-21T08:27:25.458Z,31.05
2023-02-21T08:29:52.423Z,30.13
2023-02-21T08:32:26.517Z,30.35
2023-02-21T08:34:53.456Z,30.85
2023-02-21T08:37:26.416Z,31.48
2023-02-21T08:39:53.368Z,31.13
2023-02-21T08:42:27.468Z,31.83
2023-02-21T08:44:54.332Z,31.75
2023-02-21T08:47:27.487Z,34.30
2023-02-21T08:49:54.376Z,33.00
2023-02-21T08:52:21.341Z,32.03
2023-02-21T08:54:54.468Z,32.17
2023-02-21T08:57:21.326Z,35.42
2023-02-21T08:59:54.477Z,33.40
2023-02-21T09:02:23.362Z,32.53
2023-02-21T09:04:50.337Z,33.88
2023-02-21T09:07:25.465Z,34.70
2023-02-21T09:09:52.385Z,32.13
2023-02-21T09:12:34.462Z,33.33
2023-02-21T09:15:01.430Z,33.20
2023-02-21T09:17:41.525Z,31.75
2023-02-21T09:20:10.025Z,32.50
2023-02-21T09:22:36.944Z,31.80
2023-02-21T09:25:10.548Z,29.88
2023-02-21T09:27:37.493Z,30.35
2023-02-21T09:30:13.550Z,28.70
2023-02-21T09:32:40.849Z,27.05
2023-02-21T09:35:09.091Z,29.13
2023-02-21T09:37:46.511Z,26.90
2023-02-21T09:40:28.259Z,27.52
2023-02-21T09:43:03.518Z,29.70
2023-02-21T09:45:34.907Z,30.25
2023-02-21T09:48:13.482Z,33.20
2023-02-21T09:50:49.969Z,29.25
2023-02-21T09:53:27.517Z,27.95
2023-02-21T09:56:25.523Z,26.70
2023-02-21T09:58:52.464Z,28.30
2023-02-21T10:02:05.489Z,29.85
2023-02-21T10:04:56.525Z,30.83
2023-02-21T10:08:03.525Z,27.65
2023-02-21T10:10:44.593Z,24.70
2023-02-21T10:13:40.257Z,25.92
2023-02-21T10:16:37.573Z,24.50
2023-02-21T10:19:42.291Z,30.13
2023-02-21T10:22:32.517Z,26.95
2023-02-21T10:25:05.544Z,27.48
2023-02-21T10:27:32.525Z,28.08
2023-02-21T10:30:17.569Z,27.70
2023-02-21T10:32:50.532Z,28.08
2023-02-21T10:35:17.602Z,27.20
2023-02-21T10:38:00.540Z,27.52
2023-02-21T10:40:40.784Z,27.65
2023-02-21T10:43:17.594Z,27.45
2023-02-21T10:45:54.393Z,28.20
2023-02-21T10:48:28.551Z,25.50
2023-02-21T10:50:58.439Z,26.98
2023-02-21T10:53:37.505Z,27.05
2023-02-21T10:56:22.553Z,27.58
2023-02-21T10:59:04.211Z,26.42
2023-02-21T11:01:42.517Z,24.58
2023-02-21T11:04:27.521Z,24.13
2023-02-21T11:06:55.373Z,25.17
2023-02-21T11:09:39.738Z,26.23
2023-02-21T11:12:32.585Z,25.02
2023-02-21T11:15:08.639Z,24.60
2023-02-21T11:17:35.609Z,25.13
2023-02-21T11:20:20.634Z,27.67
2023-02-21T11:22:48.878Z,27.02
2023-02-21T11:25:30.523Z,27.23
2023-02-21T11:28:22.597Z,27.63
2023-02-21T11:30:59.083Z,26.65
2023-02-21T11:33:32.582Z,25.75
2023-02-21T11:36:25.609Z,29.33
2023-02-21T11:39:23.848Z,27.88
2023-02-21T11:42:04.576Z,29.52
2023-02-21T11:44:39.161Z,28.83
2023-02-21T11:47:29.588Z,28.15
2023-02-21T11:50:18.616Z,29.00
2023-02-21T11:53:32.583Z,29.15
2023-02-21T11:56:16.188Z,28.00
2023-02-21T11:59:34.589Z,29.92
2023-02-21T12:02:45.634Z,28.75
2023-02-21T12:05:39.620Z,29.55
2023-02-21T12:08:50.791Z,26.15
2023-02-21T12:11:39.620Z,25.63
2023-02-21T12:14:47.659Z,25.42
2023-02-21T12:17:29.907Z,26.17
2023-02-21T12:20:32.577Z,26.15
2023-02-21T12:23:26.832Z,27.27
2023-02-21T12:26:30.619Z,27.35
2023-02-21T12:29:18.028Z,27.40
2023-02-21T12:32:22.638Z,29.48
2023-02-21T12:35:28.853Z,27.02
2023-02-21T12:38:16.621Z,28.08
2023-02-21T12:41:26.678Z,28.20
2023-02-21T12:44:21.666Z,29.08
2023-02-21T12:47:11.309Z,33.40
2023-02-21T12:50:15.636Z,29.33
2023-02-21T12:53:00.133Z,25.02
2023-02-21T12:55:35.593Z,29.65
2023-02-21T12:58:29.621Z,28.80
2023-02-21T13:01:09.563Z,29.15
2023-02-21T13:04:29.613Z,30.65
2023-02-21T13:07:30.636Z,27.50
2023-02-21T13:10:26.478Z,27.80
2023-02-21T13:13:32.643Z,27.00
2023-02-21T13:16:05.297Z,28.40
2023-02-21T13:18:45.609Z,33.42
2023-02-21T13:21:37.693Z,31.23
2023-02-21T13:24:18.622Z,28.60
2023-02-21T13:26:55.697Z,30.27
2023-02-21T13:29:39.646Z,28.38
2023-02-21T13:32:10.370Z,27.52
2023-02-21T13:34:48.648Z,27.27
2023-02-21T13:37:21.417Z,26.45
2023-02-21T13:40:03.726Z,26.50
2023-02-21T13:42:30.730Z,27.40
2023-02-21T13:45:29.690Z,26.05
2023-02-21T13:48:06.054Z,24.25
2023-02-21T13:50:45.687Z,24.42
2023-02-21T13:53:21.442Z,22.95
2023-02-21T13:56:24.685Z,24.05
2023-02-21T13:58:51.633Z,23.50
2023-02-21T14:01:35.755Z,23.02
2023-02-21T14:04:02.939Z,21.45
2023-02-21T14:06:41.701Z,22.33
2023-02-21T14:09:21.652Z,23.27
2023-02-21T14:11:50.794Z,22.17
2023-02-21T14:14:34.717Z,21.48
2023-02-21T14:17:07.727Z,21.80
2023-02-21T14:19:47.787Z,21.40
2023-02-21T14:22:18.076Z,21.00
2023-02-21T14:24:56.699Z,21.77
2023-02-21T14:27:26.421Z,22.70
2023-02-21T14:30:08.853Z,23.25
2023-02-21T14:32:43.585Z,23.75
2023-02-21T14:35:27.732Z,21.80
2023-02-21T14:38:02.166Z,22.23
2023-02-21T14:40:38.846Z,23.15
2023-02-21T14:43:24.541Z,22.33
2023-02-21T14:46:37.739Z,20.42
2023-02-21T14:49:46.704Z,20.95
2023-02-21T14:52:50.915Z,20.52
2023-02-21T14:55:44.143Z,22.30
2023-02-21T14:58:33.812Z,21.98
2023-02-21T15:01:33.202Z,21.20
2023-02-21T15:04:19.705Z,21.20
2023-02-21T15:07:22.439Z,20.67
2023-02-21T15:10:47.850Z,22.15
2023-02-21T15:13:33.192Z,22.48
2023-02-21T15:16:11.768Z,22.45
2023-02-21T15:18:40.634Z,20.50
2023-02-21T15:21:16.940Z,22.38
2023-02-21T15:23:52.737Z,20.75
2023-02-21T15:26:27.795Z,20.42
2023-02-21T15:29:05.986Z,18.50
2023-02-21T15:31:45.782Z,19.27
2023-02-21T15:34:27.156Z,18.85
2023-02-21T15:37:22.721Z,22.83
2023-02-21T15:39:59.877Z,23.48
2023-02-21T15:42:33.790Z,25.50
2023-02-21T15:45:13.753Z,25.33
2023-02-21T15:47:42.307Z,26.50
2023-02-21T15:50:29.735Z,26.52
2023-02-21T15:53:02.826Z,25.20
2023-02-21T15:55:30.620Z,25.95
2023-02-21T15:58:27.825Z,24.52
2023-02-21T16:01:18.135Z,24.33
2023-02-21T16:03:45.517Z,28.80
2023-02-21T16:06:34.827Z,26.95
2023-02-21T16:09:36.847Z,26.13
2023-02-21T16:12:12.855Z,27.92
2023-02-21T16:14:53.822Z,29.77
2023-02-21T16:17:40.997Z,26.63
2023-02-21T16:20:28.772Z,26.17
2023-02-21T16:23:43.657Z,28.13
2023-02-21T16:26:19.775Z,25.80
2023-02-21T16:28:46.844Z,25.02
2023-02-21T16:31:40.012Z,27.10
2023-02-21T16:34:10.770Z,27.15
2023-02-21T16:36:37.793Z,28.52
2023-02-21T16:39:10.736Z,31.83
2023-02-21T16:41:37.800Z,36.47
2023-02-21T16:44:04.916Z,41.38
2023-02-21T16:46:38.945Z,38.90
2023-02-21T16:49:05.967Z,35.58
2023-02-21T16:51:33.032Z,34.08
2023-02-21T16:54:06.866Z,32.33
2023-02-21T16:56:40.852Z,32.70
2023-02-21T16:59:13.824Z,30.35
2023-02-21T17:01:47.882Z,28.73
2023-02-21T17:04:30.873Z,29.27
2023-02-21T17:07:04.001Z,28.40
2023-02-21T17:09:37.833Z,31.83
2023-02-21T17:12:08.101Z,29.88
2023-02-21T17:14:35.138Z,31.08
2023-02-21T17:17:08.812Z,30.75
2023-02-21T17:19:35.833Z,35.53
2023-02-21T17:22:02.853Z,36.25
2023-02-21T17:24:36.857Z,35.03
2023-02-21T17:27:03.966Z,33.60
2023-02-21T17:29:30.944Z,31.92
2023-02-21T17:32:04.765Z,33.00
2023-02-21T17:34:31.743Z,33.13
2023-02-21T17:36:58.670Z,31.88
2023-02-21T17:39:31.917Z,33.92
2023-02-21T17:41:58.933Z,31.38
2023-02-21T17:44:32.885Z,32.25
2023-02-21T17:46:59.920Z,32.42
2023-02-21T17:49:28.257Z,33.22
2023-02-21T17:52:01.846Z,31.55
2023-02-21T17:54:28.858Z,35.53
2023-02-21T17:56:55.945Z,37.22
2023-02-21T17:59:29.959Z,34.80
2023-02-21T18:01:57.085Z,34.55
2023-02-21T18:04:30.902Z,40.42
2023-02-21T18:06:58.299Z,37.70
2023-02-21T18:09:25.336Z,38.20
2023-02-21T18:12:00.936Z,36.33
2023-02-21T18:14:28.441Z,36.47
2023-02-21T18:16:55.528Z,35.00
2023-02-21T18:19:30.905Z,36.67
2023-02-21T18:21:57.904Z,35.22
2023-02-21T18:24:24.954Z,38.13
2023-02-21T18:26:58.884Z,37.13
2023-02-21T18:29:25.966Z,37.47
2023-02-21T18:31:53.679Z,36.28
2023-02-21T18:34:27.824Z,35.15
2023-02-21T18:37:01.944Z,33.88
2023-02-21T18:39:29.033Z,35.05
2023-02-21T18:42:02.830Z,34.15
2023-02-21T18:44:30.936Z,35.58
2023-02-21T18:47:04.886Z,35.50
2023-02-21T18:49:32.017Z,33.30
2023-02-21T18:51:59.089Z,32.03
2023-02-21T18:54:32.863Z,33.97
2023-02-21T18:56:59.868Z,33.03
2023-02-21T18:59:33.961Z,33.58
2023-02-21T19:02:01.007Z,34.67
2023-02-21T19:04:34.936Z,35.50
2023-02-21T19:07:07.141Z,34.30
2023-02-21T19:09:34.493Z,32.85
2023-02-21T19:12:09.894Z,32.17
2023-02-21T19:14:37.403Z,31.95
2023-02-21T19:17:10.858Z,32.85
2023-02-21T19:19:38.054Z,33.85
2023-02-21T19:22:05.579Z,31.30
2023-02-21T19:24:38.955Z,27.55
2023-02-21T19:27:06.083Z,26.40
2023-02-21T19:29:33.173Z,26.13
2023-02-21T19:32:06.960Z,27.85
2023-02-21T19:34:40.927Z,27.75
2023-02-21T19:37:14.902Z,27.20
2023-02-21T19:39:42.128Z,29.35
2023-02-21T19:42:09.427Z,29.50
2023-02-21T19:44:43.013Z,29.52
2023-02-21T19:47:16.965Z,30.98
2023-02-21T19:49:44.080Z,31.83
2023-02-21T19:52:11.270Z,32.53
2023-02-21T19:54:44.983Z,30.98
2023-02-21T19:57:11.950Z,32.42
2023-02-21T19:59:39.105Z,31.88
2023-02-21T20:02:12.975Z,31.15
2023-02-21T20:04:40.004Z,30.88
2023-02-21T20:07:13.925Z,30.45
2023-02-21T20:09:41.281Z,31.20
2023-02-21T20:12:08.513Z,31.95
2023-02-21T20:14:41.977Z,30.10
2023-02-21T20:17:08.998Z,29.90
2023-02-21T20:19:43.043Z,31.02
2023-02-21T20:22:10.321Z,29.38
2023-02-21T20:24:44.023Z,31.05
2023-02-21T20:27:10.989Z,30.75
2023-02-21T20:29:38.158Z,29.92
2023-02-21T20:32:12.056Z,31.55
2023-02-21T20:34:39.527Z,34.55
2023-02-21T20:37:12.960Z,33.08
2023-02-21T20:39:46.970Z,32.40
2023-02-21T20:42:13.990Z,31.63
2023-02-21T20:44:41.080Z,32.40
2023-02-21T20:47:15.005Z,33.63
2023-02-21T20:49:45.510Z,32.67
2023-02-21T20:52:12.777Z,30.52
2023-02-21T20:54:46.984Z,29.95
2023-02-21T20:57:13.912Z,29.38
2023-02-21T20:59:40.960Z,31.85
2023-02-21T21:02:20.969Z,31.30
2023-02-21T21:04:48.089Z,32.53
2023-02-21T21:07:27.003Z,32.25
2023-02-21T21:10:01.207Z,30.20
2023-02-21T21:12:28.369Z,29.38
2023-02-21T21:14:55.457Z,31.20
2023-02-21T21:17:28.981Z,29.15
2023-02-21T21:19:56.489Z,29.17
2023-02-21T21:22:25.668Z,29.60
2023-02-21T21:25:00.021Z,30.52
2023-02-21T21:27:33.984Z,29.67
2023-02-21T21:30:08.127Z,28.35
2023-02-21T21:32:35.254Z,30.50
2023-02-21T21:35:02.523Z,29.05
2023-02-21T21:37:37.034Z,29.35
2023-02-21T21:40:05.027Z,28.92
2023-02-21T21:42:39.070Z,28.50
2023-02-21T21:45:07.629Z,30.85
2023-02-21T21:47:41.018Z,30.30
2023-02-21T21:50:08.321Z,30.90
2023-02-21T21:52:35.611Z,28.25
2023-02-21T21:55:09.070Z,29.40
2023-02-21T21:57:36.121Z,36.63
2023-02-21T22:00:03.334Z,34.38
2023-02-21T22:02:37.186Z,31.13
2023-02-21T22:05:04.340Z,30.23
2023-02-21T22:07:38.031Z,30.73
2023-02-21T22:10:05.315Z,29.40
2023-02-21T22:12:32.344Z,30.50
2023-02-21T22:15:06.092Z,29.65
2023-02-21T22:17:47.088Z,30.80
2023-02-21T22:20:24.036Z,34.40
2023-02-21T22:22:51.714Z,33.70
2023-02-21T22:25:20.561Z,33.88
2023-02-21T22:27:55.092Z,35.05
2023-02-21T22:30:22.452Z,35.10
2023-02-21T22:32:56.034Z,34.65
2023-02-21T22:35:32.174Z,31.65
2023-02-21T22:37:59.985Z,31.77
2023-02-21T22:40:27.811Z,31.42
2023-02-21T22:43:05.085Z,30.75
2023-02-21T22:45:32.468Z,33.17
2023-02-21T22:48:07.190Z,33.47
2023-02-21T22:50:34.422Z,34.40
2023-02-21T22:53:01.515Z,32.45
2023-02-21T22:55:35.097Z,31.40
2023-02-21T22:58:02.726Z,29.73
2023-02-21T23:00:31.494Z,31.95
2023-02-21T23:03:06.342Z,30.00
2023-02-21T23:05:33.378Z,30.02
2023-02-21T23:08:00.555Z,30.40
2023-02-21T23:10:35.122Z,31.90
2023-02-21T23:13:02.283Z,30.45
2023-02-21T23:15:29.422Z,31.67
2023-02-21T23:18:03.007Z,31.30
2023-02-21T23:20:30.172Z,30.75
2023-02-21T23:23:04.980Z,33.15
2023-02-21T23:25:34.294Z,35.10
2023-02-21T23:28:19.059Z,33.00
2023-02-21T23:30:45.999Z,31.95
2023-02-21T23:33:32.019Z,30.52
2023-02-21T23:35:59.131Z,31.95
2023-02-21T23:38:27.221Z,29.98
2023-02-21T23:41:04.044Z,32.63
2023-02-21T23:43:31.213Z,32.85
2023-02-21T23:46:04.977Z,32.20
2023-02-21T23:48:32.029Z,33.13
2023-02-21T23:50:59.280Z,32.20
2023-02-21T23:53:36.050Z,33.42
2023-02-21T23:56:03.167Z,33.78
2023-02-21T23:58:37.032Z,35.50
